sensor_id;sensor_type;location;lat;lon;timestamp;temperature;humidity
851;DHT22;412;51.400;7.480;2024-01-06T00:01:41;10.50;99.90
851;DHT22;412;51.400;7.480;2024-01-06T00:04:07;10.60;99.90
851;DHT22;412;51.400;7.480;2024-01-06T00:06:33;10.60;99.90
851;DHT22;412;51.400;7.480;2024-01-06T00:08:58;10.60;99.90
851;DHT22;412;51.400;7.480;2024-01-06T00:11:24;10.60;99.90
851;DHT22;412;51.400;7.480;2024-01-06T00:13:50;10.60;99.90
851;DHT22;412;51.400;7.480;2024-01-06T00:16:19;10.60;99.90
851;DHT22;412;51.400;7.480;2024-01-06T00:18:46;10.60;99.90
851;DHT22;412;51.400;7.480;2024-01-06T00:21:12;10.60;99.90
851;DHT22;412;51.400;7.480;2024-01-06T00:23:39;10.70;99.90
851;DHT22;412;51.400;7.480;2024-01-06T00:26:05;10.70;99.90
851;DHT22;412;51.400;7.480;2024-01-06T00:28:31;10.70;99.90
851;DHT22;412;51.400;7.480;2024-01-06T00:30:56;10.70;99.90
851;DHT22;412;51.400;7.480;2024-01-06T00:33:22;10.70;99.90
851;DHT22;412;51.400;7.480;2024-01-06T00:35:48;10.70;99.90
851;DHT22;412;51.400;7.480;2024-01-06T00:38:14;10.70;99.90
851;DHT22;412;51.400;7.480;2024-01-06T00:40:40;10.70;99.90
851;DHT22;412;51.400;7.480;2024-01-06T00:43:05;10.70;99.90
851;DHT22;412;51.400;7.480;2024-01-06T00:45:31;10.70;99.90
851;DHT22;412;51.400;7.480;2024-01-06T00:47:57;10.60;99.90
851;DHT22;412;51.400;7.480;2024-01-06T00:50:23;10.70;99.90
851;DHT22;412;51.400;7.480;2024-01-06T00:52:49;10.70;99.90
851;DHT22;412;51.400;7.480;2024-01-06T00:55:19;10.70;99.90
851;DHT22;412;51.400;7.480;2024-01-06T00:57:45;10.70;99.90
851;DHT22;412;51.400;7.480;2024-01-06T01:00:11;10.70;99.90
851;DHT22;412;51.400;7.480;2024-01-06T01:02:38;10.70;99.90
851;DHT22;412;51.400;7.480;2024-01-06T01:05:03;10.70;99.90
851;DHT22;412;51.400;7.480;2024-01-06T01:07:29;10.70;99.90
851;DHT22;412;51.400;7.480;2024-01-06T01:09:56;10.70;99.90
851;DHT22;412;51.400;7.480;2024-01-06T01:12:23;10.70;99.90
851;DHT22;412;51.400;7.480;2024-01-06T01:14:49;10.70;99.90
851;DHT22;412;51.400;7.480;2024-01-06T01:17:15;10.70;99.90
851;DHT22;412;51.400;7.480;2024-01-06T01:19:41;10.70;99.90
851;DHT22;412;51.400;7.480;2024-01-06T01:22:06;10.70;99.90
851;DHT22;412;51.400;7.480;2024-01-06T01:24:32;10.70;99.90
851;DHT22;412;51.400;7.480;2024-01-06T01:26:58;10.70;99.90
851;DHT22;412;51.400;7.480;2024-01-06T01:29:23;10.70;99.90
851;DHT22;412;51.400;7.480;2024-01-06T01:31:49;10.70;99.90
851;DHT22;412;51.400;7.480;2024-01-06T01:34:15;10.70;99.90
851;DHT22;412;51.400;7.480;2024-01-06T01:36:41;10.70;99.90
851;DHT22;412;51.400;7.480;2024-01-06T01:39:07;10.70;99.90
851;DHT22;412;51.400;7.480;2024-01-06T01:41:32;10.70;99.90
851;DHT22;412;51.400;7.480;2024-01-06T01:43:58;10.70;99.90
851;DHT22;412;51.400;7.480;2024-01-06T01:46:27;10.70;99.90
851;DHT22;412;51.400;7.480;2024-01-06T01:48:55;10.70;99.90
851;DHT22;412;51.400;7.480;2024-01-06T01:51:21;10.70;99.90
851;DHT22;412;51.400;7.480;2024-01-06T01:53:47;10.70;99.90
851;DHT22;412;51.400;7.480;2024-01-06T01:56:13;10.70;99.90
851;DHT22;412;51.400;7.480;2024-01-06T01:58:39;10.70;99.90
851;DHT22;412;51.400;7.480;2024-01-06T02:01:07;10.70;99.90
851;DHT22;412;51.400;7.480;2024-01-06T02:03:33;10.70;99.90
851;DHT22;412;51.400;7.480;2024-01-06T02:05:58;10.70;99.90
851;DHT22;412;51.400;7.480;2024-01-06T02:08:24;10.70;99.90
851;DHT22;412;51.400;7.480;2024-01-06T02:10:50;10.60;99.90
851;DHT22;412;51.400;7.480;2024-01-06T02:13:16;10.60;99.90
851;DHT22;412;51.400;7.480;2024-01-06T02:15:42;10.60;99.90
851;DHT22;412;51.400;7.480;2024-01-06T02:18:07;10.60;99.90
851;DHT22;412;51.400;7.480;2024-01-06T02:20:33;10.50;99.90
851;DHT22;412;51.400;7.480;2024-01-06T02:22:59;10.60;99.90
851;DHT22;412;51.400;7.480;2024-01-06T02:25:26;10.50;99.90
851;DHT22;412;51.400;7.480;2024-01-06T02:27:51;10.50;99.90
851;DHT22;412;51.400;7.480;2024-01-06T02:30:17;10.50;99.90
851;DHT22;412;51.400;7.480;2024-01-06T02:32:43;10.50;99.90
851;DHT22;412;51.400;7.480;2024-01-06T02:35:09;10.50;99.90
851;DHT22;412;51.400;7.480;2024-01-06T02:37:34;10.50;99.90
851;DHT22;412;51.400;7.480;2024-01-06T02:40:00;10.50;99.90
851;DHT22;412;51.400;7.480;2024-01-06T02:42:26;10.50;99.90
851;DHT22;412;51.400;7.480;2024-01-06T02:44:51;10.50;99.90
851;DHT22;412;51.400;7.480;2024-01-06T02:47:17;10.50;99.90
851;DHT22;412;51.400;7.480;2024-01-06T02:49:43;10.40;99.90
851;DHT22;412;51.400;7.480;2024-01-06T02:52:09;10.40;99.90
851;DHT22;412;51.400;7.480;2024-01-06T02:54:34;10.50;99.90
851;DHT22;412;51.400;7.480;2024-01-06T02:57:00;10.40;99.90
851;DHT22;412;51.400;7.480;2024-01-06T02:59:26;10.40;99.90
851;DHT22;412;51.400;7.480;2024-01-06T03:01:52;10.50;99.90
851;DHT22;412;51.400;7.480;2024-01-06T03:04:18;10.50;99.90
851;DHT22;412;51.400;7.480;2024-01-06T03:06:43;10.50;99.90
851;DHT22;412;51.400;7.480;2024-01-06T03:09:09;10.60;99.90
851;DHT22;412;51.400;7.480;2024-01-06T03:11:35;10.50;99.90
851;DHT22;412;51.400;7.480;2024-01-06T03:14:00;10.60;99.90
851;DHT22;412;51.400;7.480;2024-01-06T03:16:26;10.60;99.90
851;DHT22;412;51.400;7.480;2024-01-06T03:18:52;10.60;99.90
851;DHT22;412;51.400;7.480;2024-01-06T03:21:18;10.60;99.90
851;DHT22;412;51.400;7.480;2024-01-06T03:23:46;10.60;99.90
851;DHT22;412;51.400;7.480;2024-01-06T03:26:11;10.60;99.90
851;DHT22;412;51.400;7.480;2024-01-06T03:28:37;10.60;99.90
851;DHT22;412;51.400;7.480;2024-01-06T03:31:03;10.60;99.90
851;DHT22;412;51.400;7.480;2024-01-06T03:33:29;10.60;99.90
851;DHT22;412;51.400;7.480;2024-01-06T03:35:54;10.60;99.90
851;DHT22;412;51.400;7.480;2024-01-06T03:38:20;10.60;99.90
851;DHT22;412;51.400;7.480;2024-01-06T03:40:46;10.60;99.90
851;DHT22;412;51.400;7.480;2024-01-06T03:43:12;10.50;99.90
851;DHT22;412;51.400;7.480;2024-01-06T03:45:37;10.50;99.90
851;DHT22;412;51.400;7.480;2024-01-06T03:48:03;10.50;99.90
851;DHT22;412;51.400;7.480;2024-01-06T03:50:29;10.60;99.90
851;DHT22;412;51.400;7.480;2024-01-06T03:52:55;10.50;99.90
851;DHT22;412;51.400;7.480;2024-01-06T03:55:20;10.50;99.90
851;DHT22;412;51.400;7.480;2024-01-06T03:57:46;10.50;99.90
851;DHT22;412;51.400;7.480;2024-01-06T04:00:12;10.50;99.90
851;DHT22;412;51.400;7.480;2024-01-06T04:02:38;10.50;99.90
851;DHT22;412;51.400;7.480;2024-01-06T04:05:04;10.50;99.90
851;DHT22;412;51.400;7.480;2024-01-06T04:07:30;10.50;99.90
851;DHT22;412;51.400;7.480;2024-01-06T04:09:56;10.50;99.90
851;DHT22;412;51.400;7.480;2024-01-06T04:12:22;10.50;99.90
851;DHT22;412;51.400;7.480;2024-01-06T04:14:47;10.50;99.90
851;DHT22;412;51.400;7.480;2024-01-06T04:17:13;10.40;99.90
851;DHT22;412;51.400;7.480;2024-01-06T04:19:39;10.40;99.90
851;DHT22;412;51.400;7.480;2024-01-06T04:22:04;10.40;99.90
851;DHT22;412;51.400;7.480;2024-01-06T04:24:30;10.40;99.90
851;DHT22;412;51.400;7.480;2024-01-06T04:26:56;10.40;99.90
851;DHT22;412;51.400;7.480;2024-01-06T04:29:22;10.40;99.90
851;DHT22;412;51.400;7.480;2024-01-06T04:31:47;10.40;99.90
851;DHT22;412;51.400;7.480;2024-01-06T04:34:13;10.40;99.90
851;DHT22;412;51.400;7.480;2024-01-06T04:36:39;10.30;99.90
851;DHT22;412;51.400;7.480;2024-01-06T04:39:05;10.20;99.90
851;DHT22;412;51.400;7.480;2024-01-06T04:41:31;10.20;99.90
851;DHT22;412;51.400;7.480;2024-01-06T04:43:57;10.20;99.90
851;DHT22;412;51.400;7.480;2024-01-06T04:46:22;10.10;99.90
851;DHT22;412;51.400;7.480;2024-01-06T04:48:48;10.10;99.90
851;DHT22;412;51.400;7.480;2024-01-06T04:51:14;10.10;99.90
851;DHT22;412;51.400;7.480;2024-01-06T04:53:40;10.10;99.90
851;DHT22;412;51.400;7.480;2024-01-06T04:56:06;10.10;99.90
851;DHT22;412;51.400;7.480;2024-01-06T04:58:31;10.10;99.90
851;DHT22;412;51.400;7.480;2024-01-06T05:00:57;10.10;99.90
851;DHT22;412;51.400;7.480;2024-01-06T05:03:23;10.10;99.90
851;DHT22;412;51.400;7.480;2024-01-06T05:05:49;10.10;99.90
851;DHT22;412;51.400;7.480;2024-01-06T05:08:15;10.10;99.90
851;DHT22;412;51.400;7.480;2024-01-06T05:10:42;10.10;99.90
851;DHT22;412;51.400;7.480;2024-01-06T05:13:08;10.10;99.90
851;DHT22;412;51.400;7.480;2024-01-06T05:15:34;10.00;99.90
851;DHT22;412;51.400;7.480;2024-01-06T05:18:00;9.90;99.90
851;DHT22;412;51.400;7.480;2024-01-06T05:20:25;9.90;99.90
851;DHT22;412;51.400;7.480;2024-01-06T05:22:51;9.80;99.90
851;DHT22;412;51.400;7.480;2024-01-06T05:25:17;9.80;99.90
851;DHT22;412;51.400;7.480;2024-01-06T05:27:43;9.80;99.90
851;DHT22;412;51.400;7.480;2024-01-06T05:30:08;9.80;99.90
851;DHT22;412;51.400;7.480;2024-01-06T05:32:34;9.70;99.90
851;DHT22;412;51.400;7.480;2024-01-06T05:35:00;9.80;99.90
851;DHT22;412;51.400;7.480;2024-01-06T05:37:26;9.80;99.90
851;DHT22;412;51.400;7.480;2024-01-06T05:39:51;9.80;99.90
851;DHT22;412;51.400;7.480;2024-01-06T05:42:17;9.80;99.90
851;DHT22;412;51.400;7.480;2024-01-06T05:44:43;9.80;99.90
851;DHT22;412;51.400;7.480;2024-01-06T05:47:09;9.70;99.90
851;DHT22;412;51.400;7.480;2024-01-06T05:49:34;9.70;99.90
851;DHT22;412;51.400;7.480;2024-01-06T05:52:00;9.80;99.90
851;DHT22;412;51.400;7.480;2024-01-06T05:54:26;9.70;99.90
851;DHT22;412;51.400;7.480;2024-01-06T05:56:52;9.70;99.90
851;DHT22;412;51.400;7.480;2024-01-06T05:59:17;9.70;99.90
851;DHT22;412;51.400;7.480;2024-01-06T06:01:43;9.70;99.90
851;DHT22;412;51.400;7.480;2024-01-06T06:04:10;9.70;99.90
851;DHT22;412;51.400;7.480;2024-01-06T06:06:36;9.70;99.90
851;DHT22;412;51.400;7.480;2024-01-06T06:09:03;9.70;99.90
851;DHT22;412;51.400;7.480;2024-01-06T06:11:33;9.60;99.90
851;DHT22;412;51.400;7.480;2024-01-06T06:13:58;9.60;99.90
851;DHT22;412;51.400;7.480;2024-01-06T06:16:24;9.60;99.90
851;DHT22;412;51.400;7.480;2024-01-06T06:18:50;9.70;99.90
851;DHT22;412;51.400;7.480;2024-01-06T06:21:16;9.70;99.90
851;DHT22;412;51.400;7.480;2024-01-06T06:23:41;9.60;99.90
851;DHT22;412;51.400;7.480;2024-01-06T06:26:08;9.60;99.90
851;DHT22;412;51.400;7.480;2024-01-06T06:28:34;9.60;99.90
851;DHT22;412;51.400;7.480;2024-01-06T06:31:01;9.60;99.90
851;DHT22;412;51.400;7.480;2024-01-06T06:33:27;9.60;99.90
851;DHT22;412;51.400;7.480;2024-01-06T06:35:53;9.60;99.90
851;DHT22;412;51.400;7.480;2024-01-06T06:38:18;9.60;99.90
851;DHT22;412;51.400;7.480;2024-01-06T06:40:44;9.60;99.90
851;DHT22;412;51.400;7.480;2024-01-06T06:43:10;9.60;99.90
851;DHT22;412;51.400;7.480;2024-01-06T06:45:35;9.60;99.90
851;DHT22;412;51.400;7.480;2024-01-06T06:48:01;9.60;99.90
851;DHT22;412;51.400;7.480;2024-01-06T06:50:27;9.60;99.90
851;DHT22;412;51.400;7.480;2024-01-06T06:52:53;9.60;99.90
851;DHT22;412;51.400;7.480;2024-01-06T06:55:19;9.60;99.90
851;DHT22;412;51.400;7.480;2024-01-06T06:57:45;9.60;99.90
851;DHT22;412;51.400;7.480;2024-01-06T07:00:11;9.60;99.90
851;DHT22;412;51.400;7.480;2024-01-06T07:02:37;9.60;99.90
851;DHT22;412;51.400;7.480;2024-01-06T07:05:03;9.60;99.90
851;DHT22;412;51.400;7.480;2024-01-06T07:07:33;9.60;99.90
851;DHT22;412;51.400;7.480;2024-01-06T07:10:00;9.50;99.90
851;DHT22;412;51.400;7.480;2024-01-06T07:12:27;9.50;99.90
851;DHT22;412;51.400;7.480;2024-01-06T07:14:53;9.50;99.90
851;DHT22;412;51.400;7.480;2024-01-06T07:17:18;9.50;99.90
851;DHT22;412;51.400;7.480;2024-01-06T07:19:44;9.50;99.90
851;DHT22;412;51.400;7.480;2024-01-06T07:22:10;9.60;99.90
851;DHT22;412;51.400;7.480;2024-01-06T07:24:36;9.60;99.90
851;DHT22;412;51.400;7.480;2024-01-06T07:27:02;9.60;99.90
851;DHT22;412;51.400;7.480;2024-01-06T07:29:31;9.50;99.90
851;DHT22;412;51.400;7.480;2024-01-06T07:31:57;9.50;99.90
851;DHT22;412;51.400;7.480;2024-01-06T07:34:22;9.60;99.90
851;DHT22;412;51.400;7.480;2024-01-06T07:36:48;9.50;99.90
851;DHT22;412;51.400;7.480;2024-01-06T07:39:14;9.50;99.90
851;DHT22;412;51.400;7.480;2024-01-06T07:41:40;9.60;99.90
851;DHT22;412;51.400;7.480;2024-01-06T07:44:05;9.60;99.90
851;DHT22;412;51.400;7.480;2024-01-06T07:46:31;9.60;99.90
851;DHT22;412;51.400;7.480;2024-01-06T07:48:57;9.60;99.90
851;DHT22;412;51.400;7.480;2024-01-06T07:51:23;9.50;99.90
851;DHT22;412;51.400;7.480;2024-01-06T07:53:50;9.50;99.90
851;DHT22;412;51.400;7.480;2024-01-06T07:56:16;9.50;99.90
851;DHT22;412;51.400;7.480;2024-01-06T07:58:42;9.50;99.90
851;DHT22;412;51.400;7.480;2024-01-06T08:01:08;9.60;99.90
851;DHT22;412;51.400;7.480;2024-01-06T08:03:34;9.50;99.90
851;DHT22;412;51.400;7.480;2024-01-06T08:05:59;9.60;99.90
851;DHT22;412;51.400;7.480;2024-01-06T08:08:26;9.50;99.90
851;DHT22;412;51.400;7.480;2024-01-06T08:10:52;9.50;99.90
851;DHT22;412;51.400;7.480;2024-01-06T08:13:17;9.40;99.90
851;DHT22;412;51.400;7.480;2024-01-06T08:15:43;9.40;99.90
851;DHT22;412;51.400;7.480;2024-01-06T08:18:09;9.30;99.90
851;DHT22;412;51.400;7.480;2024-01-06T08:20:35;9.30;99.90
851;DHT22;412;51.400;7.480;2024-01-06T08:23:00;9.30;99.90
851;DHT22;412;51.400;7.480;2024-01-06T08:25:26;9.30;99.90
851;DHT22;412;51.400;7.480;2024-01-06T08:27:52;9.20;99.90
851;DHT22;412;51.400;7.480;2024-01-06T08:30:18;9.20;99.90
851;DHT22;412;51.400;7.480;2024-01-06T08:32:44;9.20;99.90
851;DHT22;412;51.400;7.480;2024-01-06T08:35:10;9.20;99.90
851;DHT22;412;51.400;7.480;2024-01-06T08:37:36;9.20;99.90
851;DHT22;412;51.400;7.480;2024-01-06T08:40:02;9.20;99.90
851;DHT22;412;51.400;7.480;2024-01-06T08:42:29;9.20;99.90
851;DHT22;412;51.400;7.480;2024-01-06T08:44:55;9.20;99.90
851;DHT22;412;51.400;7.480;2024-01-06T08:47:21;9.20;99.90
851;DHT22;412;51.400;7.480;2024-01-06T08:49:46;9.20;99.90
851;DHT22;412;51.400;7.480;2024-01-06T08:52:12;9.20;99.90
851;DHT22;412;51.400;7.480;2024-01-06T08:54:38;9.20;99.90
851;DHT22;412;51.400;7.480;2024-01-06T08:57:04;9.20;99.90
851;DHT22;412;51.400;7.480;2024-01-06T08:59:30;9.20;99.90
851;DHT22;412;51.400;7.480;2024-01-06T09:01:55;9.30;99.90
851;DHT22;412;51.400;7.480;2024-01-06T09:04:22;9.20;99.90
851;DHT22;412;51.400;7.480;2024-01-06T09:06:48;9.20;99.90
851;DHT22;412;51.400;7.480;2024-01-06T09:09:14;9.20;99.90
851;DHT22;412;51.400;7.480;2024-01-06T09:11:39;9.20;99.90
851;DHT22;412;51.400;7.480;2024-01-06T09:14:05;9.10;99.90
851;DHT22;412;51.400;7.480;2024-01-06T09:16:31;9.10;99.90
851;DHT22;412;51.400;7.480;2024-01-06T09:18:56;10.10;99.90
851;DHT22;412;51.400;7.480;2024-01-06T09:21:23;10.70;99.90
851;DHT22;412;51.400;7.480;2024-01-06T09:23:48;11.40;99.90
851;DHT22;412;51.400;7.480;2024-01-06T09:26:14;12.00;99.90
851;DHT22;412;51.400;7.480;2024-01-06T09:28:41;12.50;99.90
851;DHT22;412;51.400;7.480;2024-01-06T09:31:07;12.90;99.90
851;DHT22;412;51.400;7.480;2024-01-06T09:33:33;13.20;99.90
851;DHT22;412;51.400;7.480;2024-01-06T09:36:00;13.50;99.90
851;DHT22;412;51.400;7.480;2024-01-06T09:38:25;13.70;99.90
851;DHT22;412;51.400;7.480;2024-01-06T09:40:53;13.90;99.90
851;DHT22;412;51.400;7.480;2024-01-06T09:43:19;14.00;99.90
851;DHT22;412;51.400;7.480;2024-01-06T09:46:02;14.10;99.90
851;DHT22;412;51.400;7.480;2024-01-06T09:48:33;14.20;99.90
851;DHT22;412;51.400;7.480;2024-01-06T09:51:02;14.30;99.90
851;DHT22;412;51.400;7.480;2024-01-06T09:53:34;14.50;99.90
851;DHT22;412;51.400;7.480;2024-01-06T09:56:02;14.60;99.90
851;DHT22;412;51.400;7.480;2024-01-06T09:58:29;14.60;99.90
851;DHT22;412;51.400;7.480;2024-01-06T10:01:00;14.70;99.90
851;DHT22;412;51.400;7.480;2024-01-06T10:03:27;14.70;99.90
851;DHT22;412;51.400;7.480;2024-01-06T10:05:52;14.80;99.90
851;DHT22;412;51.400;7.480;2024-01-06T10:08:19;14.90;99.90
851;DHT22;412;51.400;7.480;2024-01-06T10:10:45;15.00;99.90
851;DHT22;412;51.400;7.480;2024-01-06T10:13:10;15.00;99.90
851;DHT22;412;51.400;7.480;2024-01-06T10:15:36;15.00;99.90
851;DHT22;412;51.400;7.480;2024-01-06T10:18:02;15.00;99.90
851;DHT22;412;51.400;7.480;2024-01-06T10:20:29;15.00;99.90
851;DHT22;412;51.400;7.480;2024-01-06T10:22:54;15.00;99.90
851;DHT22;412;51.400;7.480;2024-01-06T10:25:23;15.10;99.90
851;DHT22;412;51.400;7.480;2024-01-06T10:27:49;15.10;99.90
851;DHT22;412;51.400;7.480;2024-01-06T10:30:15;15.20;99.90
851;DHT22;412;51.400;7.480;2024-01-06T10:32:43;15.10;99.90
851;DHT22;412;51.400;7.480;2024-01-06T10:35:09;15.10;99.90
851;DHT22;412;51.400;7.480;2024-01-06T10:37:36;15.10;99.90
851;DHT22;412;51.400;7.480;2024-01-06T10:40:16;15.10;99.90
851;DHT22;412;51.400;7.480;2024-01-06T10:42:42;15.20;99.90
851;DHT22;412;51.400;7.480;2024-01-06T10:45:13;15.20;99.80
851;DHT22;412;51.400;7.480;2024-01-06T10:47:42;15.20;99.90
851;DHT22;412;51.400;7.480;2024-01-06T10:50:11;15.20;99.90
851;DHT22;412;51.400;7.480;2024-01-06T10:52:38;15.10;98.70
851;DHT22;412;51.400;7.480;2024-01-06T10:55:04;15.20;99.90
851;DHT22;412;51.400;7.480;2024-01-06T10:57:31;15.20;97.80
851;DHT22;412;51.400;7.480;2024-01-06T11:00:00;15.20;99.90
851;DHT22;412;51.400;7.480;2024-01-06T11:02:27;15.20;99.90
851;DHT22;412;51.400;7.480;2024-01-06T11:04:53;15.30;99.90
851;DHT22;412;51.400;7.480;2024-01-06T11:07:21;15.40;99.90
851;DHT22;412;51.400;7.480;2024-01-06T11:09:56;15.30;99.90
851;DHT22;412;51.400;7.480;2024-01-06T11:12:23;15.30;99.90
851;DHT22;412;51.400;7.480;2024-01-06T11:14:51;15.40;99.90
851;DHT22;412;51.400;7.480;2024-01-06T11:17:53;15.30;96.80
851;DHT22;412;51.400;7.480;2024-01-06T11:20:21;15.20;99.90
851;DHT22;412;51.400;7.480;2024-01-06T11:22:48;15.20;99.90
851;DHT22;412;51.400;7.480;2024-01-06T11:25:16;15.20;99.90
851;DHT22;412;51.400;7.480;2024-01-06T11:27:43;15.30;96.60
851;DHT22;412;51.400;7.480;2024-01-06T11:30:20;15.20;99.50
851;DHT22;412;51.400;7.480;2024-01-06T11:32:46;15.10;99.80
851;DHT22;412;51.400;7.480;2024-01-06T11:35:15;15.10;99.90
851;DHT22;412;51.400;7.480;2024-01-06T11:42:35;15.30;99.90
851;DHT22;412;51.400;7.480;2024-01-06T11:45:05;15.60;99.90
851;DHT22;412;51.400;7.480;2024-01-06T11:47:32;15.70;99.90
851;DHT22;412;51.400;7.480;2024-01-06T11:49:59;15.70;99.90
851;DHT22;412;51.400;7.480;2024-01-06T11:52:25;15.50;93.10
851;DHT22;412;51.400;7.480;2024-01-06T11:54:53;15.00;91.60
851;DHT22;412;51.400;7.480;2024-01-06T11:57:20;14.40;91.50
851;DHT22;412;51.400;7.480;2024-01-06T11:59:46;13.80;92.50
851;DHT22;412;51.400;7.480;2024-01-06T12:02:12;13.30;93.20
851;DHT22;412;51.400;7.480;2024-01-06T12:04:39;12.80;94.40
851;DHT22;412;51.400;7.480;2024-01-06T12:07:09;12.30;95.80
851;DHT22;412;51.400;7.480;2024-01-06T12:09:38;11.90;97.00
851;DHT22;412;51.400;7.480;2024-01-06T12:12:05;11.60;98.70
851;DHT22;412;51.400;7.480;2024-01-06T12:14:31;11.20;99.90
851;DHT22;412;51.400;7.480;2024-01-06T12:16:59;11.00;99.90
851;DHT22;412;51.400;7.480;2024-01-06T12:19:32;10.70;99.90
851;DHT22;412;51.400;7.480;2024-01-06T12:21:58;10.50;99.90
851;DHT22;412;51.400;7.480;2024-01-06T12:24:27;10.30;99.90
851;DHT22;412;51.400;7.480;2024-01-06T12:26:55;10.00;99.90
851;DHT22;412;51.400;7.480;2024-01-06T12:29:22;9.90;99.90
851;DHT22;412;51.400;7.480;2024-01-06T12:31:49;9.70;99.90
851;DHT22;412;51.400;7.480;2024-01-06T12:34:14;9.60;99.90
851;DHT22;412;51.400;7.480;2024-01-06T12:36:41;9.40;99.90
851;DHT22;412;51.400;7.480;2024-01-06T12:39:12;9.30;99.90
851;DHT22;412;51.400;7.480;2024-01-06T12:41:42;9.20;99.90
851;DHT22;412;51.400;7.480;2024-01-06T12:44:08;9.10;99.90
851;DHT22;412;51.400;7.480;2024-01-06T12:46:35;9.00;99.90
851;DHT22;412;51.400;7.480;2024-01-06T12:49:01;8.90;99.90
851;DHT22;412;51.400;7.480;2024-01-06T12:51:28;8.90;99.90
851;DHT22;412;51.400;7.480;2024-01-06T12:53:54;8.90;99.90
851;DHT22;412;51.400;7.480;2024-01-06T12:56:19;8.90;99.90
851;DHT22;412;51.400;7.480;2024-01-06T12:58:45;8.80;99.90
851;DHT22;412;51.400;7.480;2024-01-06T13:01:11;8.80;99.90
851;DHT22;412;51.400;7.480;2024-01-06T13:03:37;8.70;99.90
851;DHT22;412;51.400;7.480;2024-01-06T13:06:03;8.60;99.90
851;DHT22;412;51.400;7.480;2024-01-06T13:08:29;8.60;99.90
851;DHT22;412;51.400;7.480;2024-01-06T13:10:55;8.50;99.90
851;DHT22;412;51.400;7.480;2024-01-06T13:13:21;8.50;99.90
851;DHT22;412;51.400;7.480;2024-01-06T13:15:48;8.40;99.90
851;DHT22;412;51.400;7.480;2024-01-06T13:18:13;8.40;99.90
851;DHT22;412;51.400;7.480;2024-01-06T13:20:40;8.40;99.90
851;DHT22;412;51.400;7.480;2024-01-06T13:23:07;8.40;99.90
851;DHT22;412;51.400;7.480;2024-01-06T13:25:35;8.30;99.90
851;DHT22;412;51.400;7.480;2024-01-06T13:28:01;8.30;99.90
851;DHT22;412;51.400;7.480;2024-01-06T13:30:26;8.30;99.90
851;DHT22;412;51.400;7.480;2024-01-06T13:32:53;8.30;99.90
851;DHT22;412;51.400;7.480;2024-01-06T13:35:22;8.20;99.90
851;DHT22;412;51.400;7.480;2024-01-06T13:37:54;8.30;99.90
851;DHT22;412;51.400;7.480;2024-01-06T13:40:22;8.20;99.90
851;DHT22;412;51.400;7.480;2024-01-06T13:42:51;8.20;99.90
851;DHT22;412;51.400;7.480;2024-01-06T13:45:18;8.20;99.90
851;DHT22;412;51.400;7.480;2024-01-06T13:47:44;8.20;99.90
851;DHT22;412;51.400;7.480;2024-01-06T13:50:12;8.30;99.90
851;DHT22;412;51.400;7.480;2024-01-06T13:52:38;8.10;99.90
851;DHT22;412;51.400;7.480;2024-01-06T13:55:05;8.10;99.90
851;DHT22;412;51.400;7.480;2024-01-06T13:57:31;8.10;99.90
851;DHT22;412;51.400;7.480;2024-01-06T13:59:57;8.10;99.90
851;DHT22;412;51.400;7.480;2024-01-06T14:02:23;8.10;99.90
851;DHT22;412;51.400;7.480;2024-01-06T14:04:50;8.10;99.90
851;DHT22;412;51.400;7.480;2024-01-06T14:07:17;8.00;99.90
851;DHT22;412;51.400;7.480;2024-01-06T14:09:47;8.00;99.90
851;DHT22;412;51.400;7.480;2024-01-06T14:12:13;8.00;99.90
851;DHT22;412;51.400;7.480;2024-01-06T14:14:39;8.00;99.90
851;DHT22;412;51.400;7.480;2024-01-06T14:17:07;8.00;99.90
851;DHT22;412;51.400;7.480;2024-01-06T14:19:33;8.00;99.90
851;DHT22;412;51.400;7.480;2024-01-06T14:21:59;8.00;99.90
851;DHT22;412;51.400;7.480;2024-01-06T14:24:25;8.10;99.90
851;DHT22;412;51.400;7.480;2024-01-06T14:26:52;8.10;99.90
851;DHT22;412;51.400;7.480;2024-01-06T14:29:19;8.10;99.90
851;DHT22;412;51.400;7.480;2024-01-06T14:31:44;8.10;99.90
851;DHT22;412;51.400;7.480;2024-01-06T14:34:10;8.00;99.90
851;DHT22;412;51.400;7.480;2024-01-06T14:36:36;8.00;99.90
851;DHT22;412;51.400;7.480;2024-01-06T14:39:03;8.00;99.90
851;DHT22;412;51.400;7.480;2024-01-06T14:41:32;8.10;99.90
851;DHT22;412;51.400;7.480;2024-01-06T14:43:58;8.00;99.90
851;DHT22;412;51.400;7.480;2024-01-06T14:46:24;7.90;99.90
851;DHT22;412;51.400;7.480;2024-01-06T14:48:50;8.00;99.90
851;DHT22;412;51.400;7.480;2024-01-06T14:51:17;7.90;99.90
851;DHT22;412;51.400;7.480;2024-01-06T14:53:43;7.90;99.90
851;DHT22;412;51.400;7.480;2024-01-06T14:56:09;7.90;99.90
851;DHT22;412;51.400;7.480;2024-01-06T14:58:34;7.90;99.90
851;DHT22;412;51.400;7.480;2024-01-06T15:01:00;8.00;99.90
851;DHT22;412;51.400;7.480;2024-01-06T15:03:26;8.00;99.90
851;DHT22;412;51.400;7.480;2024-01-06T15:05:51;8.00;99.90
851;DHT22;412;51.400;7.480;2024-01-06T15:08:17;8.00;99.90
851;DHT22;412;51.400;7.480;2024-01-06T15:10:43;7.90;99.90
851;DHT22;412;51.400;7.480;2024-01-06T15:13:09;7.90;99.90
851;DHT22;412;51.400;7.480;2024-01-06T15:15:35;7.90;99.90
851;DHT22;412;51.400;7.480;2024-01-06T15:18:01;7.80;99.90
851;DHT22;412;51.400;7.480;2024-01-06T15:20:26;7.80;99.90
851;DHT22;412;51.400;7.480;2024-01-06T15:22:53;7.80;99.90
851;DHT22;412;51.400;7.480;2024-01-06T15:25:19;7.80;99.90
851;DHT22;412;51.400;7.480;2024-01-06T15:27:45;7.80;99.90
851;DHT22;412;51.400;7.480;2024-01-06T15:30:13;7.80;99.90
851;DHT22;412;51.400;7.480;2024-01-06T15:32:41;7.80;99.90
851;DHT22;412;51.400;7.480;2024-01-06T15:35:08;7.80;99.90
851;DHT22;412;51.400;7.480;2024-01-06T15:37:35;7.80;99.90
851;DHT22;412;51.400;7.480;2024-01-06T15:40:02;7.70;99.90
851;DHT22;412;51.400;7.480;2024-01-06T15:42:28;7.70;99.90
851;DHT22;412;51.400;7.480;2024-01-06T15:44:55;7.70;99.90
851;DHT22;412;51.400;7.480;2024-01-06T15:47:21;7.70;99.90
851;DHT22;412;51.400;7.480;2024-01-06T15:49:47;7.70;99.90
851;DHT22;412;51.400;7.480;2024-01-06T15:52:12;7.70;99.90
851;DHT22;412;51.400;7.480;2024-01-06T15:54:38;7.70;99.90
851;DHT22;412;51.400;7.480;2024-01-06T15:57:05;7.70;99.90
851;DHT22;412;51.400;7.480;2024-01-06T15:59:31;7.70;99.90
851;DHT22;412;51.400;7.480;2024-01-06T16:01:58;7.70;99.90
851;DHT22;412;51.400;7.480;2024-01-06T16:04:23;7.80;99.90
851;DHT22;412;51.400;7.480;2024-01-06T16:06:49;7.80;99.90
851;DHT22;412;51.400;7.480;2024-01-06T16:09:17;7.80;99.90
851;DHT22;412;51.400;7.480;2024-01-06T16:11:43;7.80;99.90
851;DHT22;412;51.400;7.480;2024-01-06T16:14:09;7.90;99.90
851;DHT22;412;51.400;7.480;2024-01-06T16:16:35;7.80;99.90
851;DHT22;412;51.400;7.480;2024-01-06T16:19:01;7.80;99.90
851;DHT22;412;51.400;7.480;2024-01-06T16:21:26;7.70;99.90
851;DHT22;412;51.400;7.480;2024-01-06T16:23:54;7.60;99.90
851;DHT22;412;51.400;7.480;2024-01-06T16:26:20;7.60;99.90
851;DHT22;412;51.400;7.480;2024-01-06T16:28:46;7.60;99.90
851;DHT22;412;51.400;7.480;2024-01-06T16:31:12;7.60;99.90
851;DHT22;412;51.400;7.480;2024-01-06T16:33:37;7.50;99.90
851;DHT22;412;51.400;7.480;2024-01-06T16:36:03;7.50;99.90
851;DHT22;412;51.400;7.480;2024-01-06T16:38:34;7.60;99.90
851;DHT22;412;51.400;7.480;2024-01-06T16:41:04;7.60;99.90
851;DHT22;412;51.400;7.480;2024-01-06T16:43:31;7.60;99.90